sensor_id;sensor_type;location;lat;lon;timestamp;pressure;altitude;pressure_sealevel;temperature;humidity
39739;BME280;25422;48.286;8.484;2022-11-04T00:01:56;93228.47;;;7.13;100.00
39739;BME280;25422;48.286;8.484;2022-11-04T00:04:23;93236.09;;;7.15;100.00
39739;BME280;25422;48.286;8.484;2022-11-04T00:06:50;93233.38;;;7.08;100.00
39739;BME280;25422;48.286;8.484;2022-11-04T00:09:20;93232.41;;;7.09;100.00
39739;BME280;25422;48.286;8.484;2022-11-04T00:11:47;93233.56;;;7.06;100.00
39739;BME280;25422;48.286;8.484;2022-11-04T00:14:32;93233.91;;;7.03;100.00
39739;BME280;25422;48.286;8.484;2022-11-04T00:16:58;93228.34;;;7.06;100.00
39739;BME280;25422;48.286;8.484;2022-11-04T00:19:42;93219.94;;;7.04;100.00
39739;BME280;25422;48.286;8.484;2022-11-04T00:22:26;93223.84;;;7.00;100.00
39739;BME280;25422;48.286;8.484;2022-11-04T00:25:11;93223.72;;;6.94;100.00
39739;BME280;25422;48.286;8.484;2022-11-04T00:28:01;93214.28;;;6.92;100.00
39739;BME280;25422;48.286;8.484;2022-11-04T00:30:45;93211.69;;;6.92;100.00
39739;BME280;25422;48.286;8.484;2022-11-04T00:33:11;93212.50;;;6.93;100.00
39739;BME280;25422;48.286;8.484;2022-11-04T00:35:56;93216.91;;;6.92;100.00
39739;BME280;25422;48.286;8.484;2022-11-04T00:38:23;93226.69;;;6.82;100.00
39739;BME280;25422;48.286;8.484;2022-11-04T00:40:49;93233.69;;;6.82;100.00
39739;BME280;25422;48.286;8.484;2022-11-04T00:43:14;93235.97;;;6.77;100.00
39739;BME280;25422;48.286;8.484;2022-11-04T00:45:40;93223.97;;;6.75;100.00
39739;BME280;25422;48.286;8.484;2022-11-04T00:48:06;93230.16;;;6.74;100.00
39739;BME280;25422;48.286;8.484;2022-11-04T00:50:32;93223.69;;;6.70;100.00
39739;BME280;25422;48.286;8.484;2022-11-04T00:53:01;93220.41;;;6.68;100.00
39739;BME280;25422;48.286;8.484;2022-11-04T00:55:28;93216.06;;;6.69;100.00
39739;BME280;25422;48.286;8.484;2022-11-04T00:57:53;93217.19;;;6.66;100.00
39739;BME280;25422;48.286;8.484;2022-11-04T01:00:19;93213.94;;;6.64;100.00
39739;BME280;25422;48.286;8.484;2022-11-04T01:02:45;93221.38;;;6.67;100.00
39739;BME280;25422;48.286;8.484;2022-11-04T01:05:10;93230.19;;;6.66;100.00
39739;BME280;25422;48.286;8.484;2022-11-04T01:07:36;93239.59;;;6.67;100.00
39739;BME280;25422;48.286;8.484;2022-11-04T01:10:02;93239.94;;;6.64;100.00
39739;BME280;25422;48.286;8.484;2022-11-04T01:12:28;93244.19;;;6.57;100.00
39739;BME280;25422;48.286;8.484;2022-11-04T01:14:53;93247.44;;;6.51;100.00
39739;BME280;25422;48.286;8.484;2022-11-04T01:17:19;93235.16;;;6.36;100.00
39739;BME280;25422;48.286;8.484;2022-11-04T01:19:44;93234.19;;;6.29;100.00
39739;BME280;25422;48.286;8.484;2022-11-04T01:22:09;93237.63;;;6.21;100.00
39739;BME280;25422;48.286;8.484;2022-11-04T01:24:35;93239.75;;;6.18;100.00
39739;BME280;25422;48.286;8.484;2022-11-04T01:27:00;93233.25;;;6.14;100.00
39739;BME280;25422;48.286;8.484;2022-11-04T01:29:25;93241.72;;;6.07;100.00
39739;BME280;25422;48.286;8.484;2022-11-04T01:31:51;93233.13;;;6.07;100.00
39739;BME280;25422;48.286;8.484;2022-11-04T01:34:16;93239.94;;;6.00;100.00
39739;BME280;25422;48.286;8.484;2022-11-04T01:36:42;93250.50;;;5.98;100.00
39739;BME280;25422;48.286;8.484;2022-11-04T01:39:08;93240.06;;;5.90;100.00
39739;BME280;25422;48.286;8.484;2022-11-04T01:41:33;93242.03;;;5.88;100.00
39739;BME280;25422;48.286;8.484;2022-11-04T01:47:02;93240.91;;;5.82;100.00
39739;BME280;25422;48.286;8.484;2022-11-04T01:49:32;93243.97;;;5.78;100.00
39739;BME280;25422;48.286;8.484;2022-11-04T01:52:08;93231.84;;;5.78;100.00
39739;BME280;25422;48.286;8.484;2022-11-04T01:54:36;93240.09;;;5.73;100.00
39739;BME280;25422;48.286;8.484;2022-11-04T01:57:04;93248.22;;;5.70;100.00
39739;BME280;25422;48.286;8.484;2022-11-04T01:59:37;93238.00;;;5.69;100.00
39739;BME280;25422;48.286;8.484;2022-11-04T02:02:04;93243.53;;;5.66;100.00
39739;BME280;25422;48.286;8.484;2022-11-04T02:04:29;93228.09;;;5.64;100.00
39739;BME280;25422;48.286;8.484;2022-11-04T02:06:58;93219.66;;;5.62;100.00
39739;BME280;25422;48.286;8.484;2022-11-04T02:09:26;93217.25;;;5.61;100.00
39739;BME280;25422;48.286;8.484;2022-11-04T02:11:52;93228.41;;;5.61;100.00
39739;BME280;25422;48.286;8.484;2022-11-04T02:14:36;93218.38;;;5.58;100.00
39739;BME280;25422;48.286;8.484;2022-11-04T02:31:09;93224.06;;;5.62;100.00
39739;BME280;25422;48.286;8.484;2022-11-04T02:33:52;93218.53;;;5.65;100.00
39739;BME280;25422;48.286;8.484;2022-11-04T02:36:33;93209.47;;;5.52;100.00
39739;BME280;25422;48.286;8.484;2022-11-04T02:39:13;93201.34;;;5.47;100.00
39739;BME280;25422;48.286;8.484;2022-11-04T02:41:52;93198.44;;;5.42;100.00
39739;BME280;25422;48.286;8.484;2022-11-04T02:44:31;93197.28;;;5.36;100.00
39739;BME280;25422;48.286;8.484;2022-11-04T02:47:04;93206.53;;;5.31;100.00
39739;BME280;25422;48.286;8.484;2022-11-04T02:49:39;93206.88;;;5.28;100.00
39739;BME280;25422;48.286;8.484;2022-11-04T02:52:18;93193.72;;;5.29;100.00
39739;BME280;25422;48.286;8.484;2022-11-04T02:55:14;93190.31;;;5.29;100.00
39739;BME280;25422;48.286;8.484;2022-11-04T02:57:44;93198.59;;;5.24;100.00
39739;BME280;25422;48.286;8.484;2022-11-04T03:00:12;93199.56;;;5.23;100.00
39739;BME280;25422;48.286;8.484;2022-11-04T03:03:03;93205.41;;;5.25;100.00
39739;BME280;25422;48.286;8.484;2022-11-04T03:05:34;93209.28;;;5.21;100.00
39739;BME280;25422;48.286;8.484;2022-11-04T03:08:04;93201.19;;;5.16;100.00
39739;BME280;25422;48.286;8.484;2022-11-04T03:10:34;93198.88;;;5.13;100.00
39739;BME280;25422;48.286;8.484;2022-11-04T03:13:10;93187.38;;;5.15;100.00
39739;BME280;25422;48.286;8.484;2022-11-04T03:15:38;93196.97;;;5.15;100.00
39739;BME280;25422;48.286;8.484;2022-11-04T03:20:41;93214.78;;;5.10;100.00
39739;BME280;25422;48.286;8.484;2022-11-04T03:23:08;93225.47;;;5.06;100.00
39739;BME280;25422;48.286;8.484;2022-11-04T03:25:41;93217.84;;;5.05;100.00
39739;BME280;25422;48.286;8.484;2022-11-04T03:28:23;93199.03;;;5.03;100.00
39739;BME280;25422;48.286;8.484;2022-11-04T03:30:52;93177.00;;;4.99;100.00
39739;BME280;25422;48.286;8.484;2022-11-04T03:35:45;93186.06;;;4.95;100.00
39739;BME280;25422;48.286;8.484;2022-11-04T03:38:11;93191.41;;;4.93;100.00
39739;BME280;25422;48.286;8.484;2022-11-04T03:40:36;93194.34;;;4.90;100.00
39739;BME280;25422;48.286;8.484;2022-11-04T03:43:21;93197.22;;;4.87;100.00
39739;BME280;25422;48.286;8.484;2022-11-04T03:45:49;93199.81;;;4.87;100.00
39739;BME280;25422;48.286;8.484;2022-11-04T03:48:15;93209.72;;;4.83;100.00
39739;BME280;25422;48.286;8.484;2022-11-04T03:50:45;93202.72;;;4.84;100.00
39739;BME280;25422;48.286;8.484;2022-11-04T03:53:13;93179.91;;;4.79;100.00
39739;BME280;25422;48.286;8.484;2022-11-04T04:03:57;93210.97;;;4.71;100.00
39739;BME280;25422;48.286;8.484;2022-11-04T04:06:28;93209.97;;;4.72;100.00
39739;BME280;25422;48.286;8.484;2022-11-04T04:09:20;93209.34;;;4.70;100.00
39739;BME280;25422;48.286;8.484;2022-11-04T04:11:52;93221.16;;;4.64;100.00
39739;BME280;25422;48.286;8.484;2022-11-04T04:14:27;93225.31;;;4.57;100.00
39739;BME280;25422;48.286;8.484;2022-11-04T04:17:15;93225.31;;;4.57;100.00
39739;BME280;25422;48.286;8.484;2022-11-04T04:19:47;93216.59;;;4.58;100.00
39739;BME280;25422;48.286;8.484;2022-11-04T04:22:19;93217.84;;;4.46;100.00
39739;BME280;25422;48.286;8.484;2022-11-04T04:24:47;93214.91;;;4.41;100.00
39739;BME280;25422;48.286;8.484;2022-11-04T04:27:34;93209.72;;;4.41;100.00
39739;BME280;25422;48.286;8.484;2022-11-04T04:30:11;93214.72;;;4.34;100.00
39739;BME280;25422;48.286;8.484;2022-11-04T04:32:41;93210.34;;;4.34;100.00
39739;BME280;25422;48.286;8.484;2022-11-04T04:35:08;93206.13;;;4.33;100.00
39739;BME280;25422;48.286;8.484;2022-11-04T04:37:57;93205.59;;;4.21;100.00
39739;BME280;25422;48.286;8.484;2022-11-04T04:40:47;93196.34;;;4.19;100.00
39739;BME280;25422;48.286;8.484;2022-11-04T04:43:33;93194.75;;;4.18;100.00
39739;BME280;25422;48.286;8.484;2022-11-04T04:46:18;93181.50;;;4.21;100.00
39739;BME280;25422;48.286;8.484;2022-11-04T04:48:44;93191.53;;;4.24;100.00
39739;BME280;25422;48.286;8.484;2022-11-04T04:51:09;93182.28;;;4.21;100.00
39739;BME280;25422;48.286;8.484;2022-11-04T04:53:35;93184.72;;;4.23;100.00
39739;BME280;25422;48.286;8.484;2022-11-04T04:56:00;93178.91;;;4.21;100.00
39739;BME280;25422;48.286;8.484;2022-11-04T04:58:25;93161.75;;;4.20;100.00
39739;BME280;25422;48.286;8.484;2022-11-04T05:00:51;93161.53;;;4.13;100.00
39739;BME280;25422;48.286;8.484;2022-11-04T05:03:16;93164.09;;;4.05;100.00
39739;BME280;25422;48.286;8.484;2022-11-04T05:05:42;93150.31;;;3.96;100.00
39739;BME280;25422;48.286;8.484;2022-11-04T05:08:07;93141.38;;;3.91;100.00
39739;BME280;25422;48.286;8.484;2022-11-04T05:10:33;93144.28;;;3.87;100.00
39739;BME280;25422;48.286;8.484;2022-11-04T05:12:59;93139.59;;;3.83;100.00
39739;BME280;25422;48.286;8.484;2022-11-04T05:15:43;93143.28;;;3.80;100.00
39739;BME280;25422;48.286;8.484;2022-11-04T05:18:08;93151.03;;;3.80;100.00
39739;BME280;25422;48.286;8.484;2022-11-04T05:20:35;93167.00;;;3.76;100.00
39739;BME280;25422;48.286;8.484;2022-11-04T05:23:02;93161.34;;;3.72;100.00
39739;BME280;25422;48.286;8.484;2022-11-04T05:25:28;93175.25;;;3.71;100.00
39739;BME280;25422;48.286;8.484;2022-11-04T05:27:53;93183.16;;;3.69;100.00
39739;BME280;25422;48.286;8.484;2022-11-04T05:30:19;93188.78;;;3.65;100.00
39739;BME280;25422;48.286;8.484;2022-11-04T05:32:44;93184.75;;;3.62;100.00
39739;BME280;25422;48.286;8.484;2022-11-04T05:35:10;93180.47;;;3.53;100.00
39739;BME280;25422;48.286;8.484;2022-11-04T05:37:35;93168.19;;;3.55;100.00
39739;BME280;25422;48.286;8.484;2022-11-04T05:40:00;93162.38;;;3.53;100.00
39739;BME280;25422;48.286;8.484;2022-11-04T05:42:26;93159.94;;;3.51;100.00
39739;BME280;25422;48.286;8.484;2022-11-04T05:44:51;93165.59;;;3.55;100.00
39739;BME280;25422;48.286;8.484;2022-11-04T05:47:17;93164.97;;;3.53;100.00
39739;BME280;25422;48.286;8.484;2022-11-04T05:49:42;93170.34;;;3.60;100.00
39739;BME280;25422;48.286;8.484;2022-11-04T05:52:07;93166.63;;;3.62;100.00
39739;BME280;25422;48.286;8.484;2022-11-04T05:54:36;93164.66;;;3.56;100.00
39739;BME280;25422;48.286;8.484;2022-11-04T05:57:02;93159.47;;;3.56;100.00
39739;BME280;25422;48.286;8.484;2022-11-04T05:59:27;93166.91;;;3.59;100.00
39739;BME280;25422;48.286;8.484;2022-11-04T06:01:53;93167.03;;;3.49;100.00
39739;BME280;25422;48.286;8.484;2022-11-04T06:04:18;93151.66;;;3.48;100.00
39739;BME280;25422;48.286;8.484;2022-11-04T06:06:44;93149.53;;;3.43;100.00
39739;BME280;25422;48.286;8.484;2022-11-04T06:09:10;93147.28;;;3.48;100.00
39739;BME280;25422;48.286;8.484;2022-11-04T06:11:36;93144.84;;;3.47;100.00
39739;BME280;25422;48.286;8.484;2022-11-04T06:14:02;93152.03;;;3.53;100.00
39739;BME280;25422;48.286;8.484;2022-11-04T06:16:27;93159.63;;;3.54;100.00
39739;BME280;25422;48.286;8.484;2022-11-04T06:18:53;93164.75;;;3.46;100.00
39739;BME280;25422;48.286;8.484;2022-11-04T06:21:25;93158.03;;;3.35;100.00
39739;BME280;25422;48.286;8.484;2022-11-04T06:23:52;93170.28;;;3.33;100.00
39739;BME280;25422;48.286;8.484;2022-11-04T06:26:18;93179.53;;;3.36;100.00
39739;BME280;25422;48.286;8.484;2022-11-04T06:28:44;93184.06;;;3.34;100.00
39739;BME280;25422;48.286;8.484;2022-11-04T06:31:11;93186.13;;;3.30;100.00
39739;BME280;25422;48.286;8.484;2022-11-04T06:33:37;93178.81;;;3.26;100.00
39739;BME280;25422;48.286;8.484;2022-11-04T06:36:04;93180.56;;;3.25;100.00
39739;BME280;25422;48.286;8.484;2022-11-04T06:38:31;93187.06;;;3.29;100.00
39739;BME280;25422;48.286;8.484;2022-11-04T06:40:57;93191.22;;;3.22;100.00
39739;BME280;25422;48.286;8.484;2022-11-04T06:43:22;93191.97;;;3.32;100.00
39739;BME280;25422;48.286;8.484;2022-11-04T06:45:57;93189.00;;;3.27;100.00
39739;BME280;25422;48.286;8.484;2022-11-04T06:48:23;93190.28;;;3.23;100.00
39739;BME280;25422;48.286;8.484;2022-11-04T06:50:48;93182.72;;;3.12;100.00
39739;BME280;25422;48.286;8.484;2022-11-04T06:53:14;93181.78;;;3.13;100.00
39739;BME280;25422;48.286;8.484;2022-11-04T06:55:39;93181.63;;;3.14;100.00
39739;BME280;25422;48.286;8.484;2022-11-04T06:58:05;93174.19;;;3.11;100.00
39739;BME280;25422;48.286;8.484;2022-11-04T07:00:30;93180.16;;;3.12;100.00
39739;BME280;25422;48.286;8.484;2022-11-04T07:02:56;93176.19;;;3.17;100.00
39739;BME280;25422;48.286;8.484;2022-11-04T07:05:22;93175.41;;;3.25;100.00
39739;BME280;25422;48.286;8.484;2022-11-04T07:07:47;93182.84;;;3.28;100.00
39739;BME280;25422;48.286;8.484;2022-11-04T07:10:12;93179.31;;;3.47;100.00
39739;BME280;25422;48.286;8.484;2022-11-04T07:12:38;93183.69;;;3.55;100.00
39739;BME280;25422;48.286;8.484;2022-11-04T07:15:04;93192.28;;;3.56;100.00
39739;BME280;25422;48.286;8.484;2022-11-04T07:17:29;93188.78;;;3.65;100.00
39739;BME280;25422;48.286;8.484;2022-11-04T07:19:54;93190.28;;;3.76;100.00
39739;BME280;25422;48.286;8.484;2022-11-04T07:22:20;93185.47;;;3.81;100.00
39739;BME280;25422;48.286;8.484;2022-11-04T07:24:46;93187.78;;;3.84;100.00
39739;BME280;25422;48.286;8.484;2022-11-04T07:27:11;93188.16;;;3.97;100.00
39739;BME280;25422;48.286;8.484;2022-11-04T07:29:37;93180.72;;;3.94;100.00
39739;BME280;25422;48.286;8.484;2022-11-04T07:32:02;93185.75;;;4.04;100.00
39739;BME280;25422;48.286;8.484;2022-11-04T07:34:28;93184.03;;;4.13;100.00
39739;BME280;25422;48.286;8.484;2022-11-04T07:36:53;93180.19;;;4.17;100.00
39739;BME280;25422;48.286;8.484;2022-11-04T07:39:19;93179.09;;;4.28;100.00
39739;BME280;25422;48.286;8.484;2022-11-04T07:41:44;93178.31;;;4.35;100.00
39739;BME280;25422;48.286;8.484;2022-11-04T07:44:12;93169.75;;;4.43;100.00
39739;BME280;25422;48.286;8.484;2022-11-04T07:46:38;93170.41;;;4.45;100.00
39739;BME280;25422;48.286;8.484;2022-11-04T07:49:03;93168.63;;;4.46;100.00
39739;BME280;25422;48.286;8.484;2022-11-04T07:51:29;93164.31;;;4.63;100.00
39739;BME280;25422;48.286;8.484;2022-11-04T07:53:58;93147.97;;;4.87;100.00
39739;BME280;25422;48.286;8.484;2022-11-04T07:56:24;93151.41;;;5.12;100.00
39739;BME280;25422;48.286;8.484;2022-11-04T07:58:50;93154.50;;;5.32;100.00
39739;BME280;25422;48.286;8.484;2022-11-04T08:01:19;93144.75;;;5.59;100.00
39739;BME280;25422;48.286;8.484;2022-11-04T08:03:46;93150.84;;;5.91;100.00
39739;BME280;25422;48.286;8.484;2022-11-04T08:06:15;93144.16;;;5.97;100.00
39739;BME280;25422;48.286;8.484;2022-11-04T08:08:41;93135.91;;;6.10;100.00
39739;BME280;25422;48.286;8.484;2022-11-04T08:11:16;93141.84;;;6.18;100.00
39739;BME280;25422;48.286;8.484;2022-11-04T08:13:41;93137.63;;;6.26;100.00
39739;BME280;25422;48.286;8.484;2022-11-04T08:16:10;93135.31;;;6.31;100.00
39739;BME280;25422;48.286;8.484;2022-11-04T08:18:38;93131.63;;;6.56;100.00
39739;BME280;25422;48.286;8.484;2022-11-04T08:21:04;93137.16;;;6.53;100.00
39739;BME280;25422;48.286;8.484;2022-11-04T08:23:30;93131.88;;;6.38;100.00
39739;BME280;25422;48.286;8.484;2022-11-04T08:25:56;93131.25;;;6.36;100.00
39739;BME280;25422;48.286;8.484;2022-11-04T08:28:22;93136.81;;;6.25;100.00
39739;BME280;25422;48.286;8.484;2022-11-04T08:31:03;93139.63;;;6.47;100.00
39739;BME280;25422;48.286;8.484;2022-11-04T08:33:31;93142.13;;;6.63;100.00
39739;BME280;25422;48.286;8.484;2022-11-04T08:36:20;93141.06;;;7.04;100.00
39739;BME280;25422;48.286;8.484;2022-11-04T08:38:46;93145.00;;;7.23;100.00
39739;BME280;25422;48.286;8.484;2022-11-04T08:41:14;93142.00;;;7.34;100.00
39739;BME280;25422;48.286;8.484;2022-11-04T08:43:41;93140.16;;;7.58;100.00
39739;BME280;25422;48.286;8.484;2022-11-04T08:46:08;93148.63;;;7.60;100.00
39739;BME280;25422;48.286;8.484;2022-11-04T08:48:35;93157.84;;;7.48;100.00
39739;BME280;25422;48.286;8.484;2022-11-04T08:51:02;93152.50;;;7.64;100.00
39739;BME280;25422;48.286;8.484;2022-11-04T08:53:28;93165.56;;;7.56;100.00
39739;BME280;25422;48.286;8.484;2022-11-04T08:55:53;93172.84;;;7.60;100.00
39739;BME280;25422;48.286;8.484;2022-11-04T08:58:19;93155.38;;;7.31;100.00
39739;BME280;25422;48.286;8.484;2022-11-04T09:00:45;93158.44;;;7.12;100.00
39739;BME280;25422;48.286;8.484;2022-11-04T09:03:11;93156.34;;;7.07;100.00
39739;BME280;25422;48.286;8.484;2022-11-04T09:05:38;93160.16;;;7.19;100.00
39739;BME280;25422;48.286;8.484;2022-11-04T09:08:11;93159.75;;;7.07;100.00
39739;BME280;25422;48.286;8.484;2022-11-04T09:10:40;93164.34;;;7.05;100.00
39739;BME280;25422;48.286;8.484;2022-11-04T09:13:07;93172.13;;;7.05;100.00
39739;BME280;25422;48.286;8.484;2022-11-04T09:15:34;93177.41;;;7.20;100.00
39739;BME280;25422;48.286;8.484;2022-11-04T09:18:00;93186.84;;;7.36;100.00
39739;BME280;25422;48.286;8.484;2022-11-04T09:20:26;93179.03;;;7.59;100.00
39739;BME280;25422;48.286;8.484;2022-11-04T09:22:52;93177.63;;;7.57;100.00
39739;BME280;25422;48.286;8.484;2022-11-04T09:25:18;93176.69;;;7.50;100.00
39739;BME280;25422;48.286;8.484;2022-11-04T09:27:44;93177.53;;;7.65;100.00
39739;BME280;25422;48.286;8.484;2022-11-04T09:30:10;93176.63;;;7.73;100.00
39739;BME280;25422;48.286;8.484;2022-11-04T09:32:35;93173.25;;;7.72;100.00
39739;BME280;25422;48.286;8.484;2022-11-04T09:35:01;93169.09;;;7.63;100.00
39739;BME280;25422;48.286;8.484;2022-11-04T09:37:26;93177.78;;;7.70;100.00
39739;BME280;25422;48.286;8.484;2022-11-04T09:39:51;93181.47;;;7.61;100.00
39739;BME280;25422;48.286;8.484;2022-11-04T09:45:03;93171.47;;;7.50;100.00
39739;BME280;25422;48.286;8.484;2022-11-04T09:47:31;93173.47;;;7.48;100.00
39739;BME280;25422;48.286;8.484;2022-11-04T09:49:58;93173.06;;;7.74;100.00
39739;BME280;25422;48.286;8.484;2022-11-04T09:52:30;93181.34;;;7.78;100.00
39739;BME280;25422;48.286;8.484;2022-11-04T09:55:20;93181.44;;;7.84;100.00
39739;BME280;25422;48.286;8.484;2022-11-04T09:57:54;93172.81;;;7.84;100.00
39739;BME280;25422;48.286;8.484;2022-11-04T10:00:21;93169.03;;;7.86;100.00
39739;BME280;25422;48.286;8.484;2022-11-04T10:08:00;93166.00;;;7.83;100.00
39739;BME280;25422;48.286;8.484;2022-11-04T10:22:01;93171.31;;;7.66;100.00
39739;BME280;25422;48.286;8.484;2022-11-04T10:24:51;93171.47;;;7.88;100.00
39739;BME280;25422;48.286;8.484;2022-11-04T10:27:23;93165.09;;;8.05;100.00
39739;BME280;25422;48.286;8.484;2022-11-04T10:30:02;93174.63;;;8.28;100.00
39739;BME280;25422;48.286;8.484;2022-11-04T10:32:41;93160.94;;;8.41;100.00
39739;BME280;25422;48.286;8.484;2022-11-04T10:35:30;93155.28;;;8.82;100.00
39739;BME280;25422;48.286;8.484;2022-11-04T10:38:07;93163.47;;;9.16;100.00
39739;BME280;25422;48.286;8.484;2022-11-04T10:40:36;93154.81;;;9.15;100.00
39739;BME280;25422;48.286;8.484;2022-11-04T10:43:07;93152.13;;;9.08;100.00
39739;BME280;25422;48.286;8.484;2022-11-04T10:46:07;93152.00;;;9.17;100.00
39739;BME280;25422;48.286;8.484;2022-11-04T10:48:50;93157.16;;;9.10;100.00
39739;BME280;25422;48.286;8.484;2022-11-04T10:51:19;93154.94;;;9.07;100.00
39739;BME280;25422;48.286;8.484;2022-11-04T10:53:47;93153.34;;;8.91;100.00
39739;BME280;25422;48.286;8.484;2022-11-04T10:56:42;93156.56;;;8.71;100.00
39739;BME280;25422;48.286;8.484;2022-11-04T10:59:24;93155.72;;;8.86;100.00
39739;BME280;25422;48.286;8.484;2022-11-04T11:01:52;93158.78;;;8.74;100.00
39739;BME280;25422;48.286;8.484;2022-11-04T11:04:34;93159.56;;;8.90;100.00
39739;BME280;25422;48.286;8.484;2022-11-04T11:07:02;93150.63;;;8.99;100.00
39739;BME280;25422;48.286;8.484;2022-11-04T11:09:34;93155.56;;;8.72;100.00
39739;BME280;25422;48.286;8.484;2022-11-04T11:12:16;93162.84;;;8.77;100.00
39739;BME280;25422;48.286;8.484;2022-11-04T11:14:42;93160.78;;;8.72;100.00
39739;BME280;25422;48.286;8.484;2022-11-04T11:20:00;93154.78;;;8.57;100.00
39739;BME280;25422;48.286;8.484;2022-11-04T11:22:40;93157.03;;;8.60;100.00
39739;BME280;25422;48.286;8.484;2022-11-04T11:27:53;93157.47;;;8.34;100.00
39739;BME280;25422;48.286;8.484;2022-11-04T11:32:52;93156.59;;;8.12;100.00
39739;BME280;25422;48.286;8.484;2022-11-04T11:35:22;93140.94;;;8.12;100.00
39739;BME280;25422;48.286;8.484;2022-11-04T11:37:49;93139.13;;;8.12;100.00
39739;BME280;25422;48.286;8.484;2022-11-04T11:42:51;93130.69;;;8.55;100.00
39739;BME280;25422;48.286;8.484;2022-11-04T11:45:19;93129.84;;;8.69;100.00
39739;BME280;25422;48.286;8.484;2022-11-04T11:47:45;93129.47;;;9.09;100.00
39739;BME280;25422;48.286;8.484;2022-11-04T11:52:37;93125.59;;;9.76;100.00
39739;BME280;25422;48.286;8.484;2022-11-04T11:55:23;93124.78;;;10.39;100.00
39739;BME280;25422;48.286;8.484;2022-11-04T12:00:31;93122.25;;;10.53;100.00
39739;BME280;25422;48.286;8.484;2022-11-04T12:03:29;93117.84;;;10.60;100.00
39739;BME280;25422;48.286;8.484;2022-11-04T12:09:20;93124.59;;;9.77;100.00
39739;BME280;25422;48.286;8.484;2022-11-04T12:12:16;93117.28;;;9.66;100.00
39739;BME280;25422;48.286;8.484;2022-11-04T12:23:15;93121.19;;;8.84;100.00
39739;BME280;25422;48.286;8.484;2022-11-04T12:31:14;93125.91;;;8.95;100.00
39739;BME280;25422;48.286;8.484;2022-11-04T12:33:52;93131.44;;;8.85;100.00
39739;BME280;25422;48.286;8.484;2022-11-04T12:36:40;93135.81;;;8.63;100.00
39739;BME280;25422;48.286;8.484;2022-11-04T12:42:03;93139.19;;;8.78;100.00
39739;BME280;25422;48.286;8.484;2022-11-04T12:45:20;93136.72;;;8.92;100.00
39739;BME280;25422;48.286;8.484;2022-11-04T12:47:37;93140.19;;;8.99;100.00
39739;BME280;25422;48.286;8.484;2022-11-04T12:50:17;93130.94;;;9.18;100.00
39739;BME280;25422;48.286;8.484;2022-11-04T12:52:58;93140.63;;;9.03;100.00
39739;BME280;25422;48.286;8.484;2022-11-04T12:58:11;93137.34;;;8.94;100.00
39739;BME280;25422;48.286;8.484;2022-11-04T13:00:40;93144.34;;;8.57;100.00
39739;BME280;25422;48.286;8.484;2022-11-04T13:03:21;93142.38;;;8.29;100.00
39739;BME280;25422;48.286;8.484;2022-11-04T13:08:43;93138.97;;;8.14;100.00
39739;BME280;25422;48.286;8.484;2022-11-04T13:11:16;93144.16;;;8.14;100.00
39739;BME280;25422;48.286;8.484;2022-11-04T13:14:07;93145.50;;;8.09;100.00
39739;BME280;25422;48.286;8.484;2022-11-04T13:16:40;93152.16;;;8.27;100.00
39739;BME280;25422;48.286;8.484;2022-11-04T13:19:24;93148.75;;;8.12;100.00
39739;BME280;25422;48.286;8.484;2022-11-04T13:21:55;93146.25;;;8.33;100.00
39739;BME280;25422;48.286;8.484;2022-11-04T13:24:26;93146.25;;;8.33;100.00
39739;BME280;25422;48.286;8.484;2022-11-04T13:26:58;93153.97;;;8.12;100.00
39739;BME280;25422;48.286;8.484;2022-11-04T13:29:26;93150.53;;;8.56;100.00
39739;BME280;25422;48.286;8.484;2022-11-04T13:37:36;93157.28;;;8.50;100.00
39739;BME280;25422;48.286;8.484;2022-11-04T13:40:24;93151.97;;;8.14;100.00
39739;BME280;25422;48.286;8.484;2022-11-04T13:43:06;93158.63;;;8.16;100.00
39739;BME280;25422;48.286;8.484;2022-11-04T13:45:56;93155.03;;;8.02;100.00
39739;BME280;25422;48.286;8.484;2022-11-04T13:48:25;93154.25;;;7.87;100.00
39739;BME280;25422;48.286;8.484;2022-11-04T13:50:56;93150.59;;;7.73;100.00
39739;BME280;25422;48.286;8.484;2022-11-04T13:56:04;93163.41;;;7.83;100.00
39739;BME280;25422;48.286;8.484;2022-11-04T13:58:32;93159.59;;;8.00;100.00
39739;BME280;25422;48.286;8.484;2022-11-04T14:01:16;93161.44;;;8.15;100.00
39739;BME280;25422;48.286;8.484;2022-11-04T14:04:04;93167.81;;;8.27;100.00
39739;BME280;25422;48.286;8.484;2022-11-04T14:06:50;93168.78;;;8.71;100.00
39739;BME280;25422;48.286;8.484;2022-11-04T14:14:35;93172.13;;;8.65;100.00
39739;BME280;25422;48.286;8.484;2022-11-04T14:17:01;93166.00;;;8.72;100.00
39739;BME280;25422;48.286;8.484;2022-11-04T14:20:26;93169.03;;;8.76;100.00
39739;BME280;25422;48.286;8.484;2022-11-04T14:23:01;93178.16;;;8.50;100.00
39739;BME280;25422;48.286;8.484;2022-11-04T14:25:31;93173.38;;;8.24;100.00
39739;BME280;25422;48.286;8.484;2022-11-04T14:35:45;93188.69;;;7.74;100.00
39739;BME280;25422;48.286;8.484;2022-11-04T14:38:28;93191.00;;;7.69;100.00
39739;BME280;25422;48.286;8.484;2022-11-04T14:41:28;93195.28;;;7.62;100.00
39739;BME280;25422;48.286;8.484;2022-11-04T14:43:57;93194.13;;;7.64;100.00
39739;BME280;25422;48.286;8.484;2022-11-04T14:46:27;93198.38;;;7.65;100.00
39739;BME280;25422;48.286;8.484;2022-11-04T14:48:56;93204.25;;;7.59;100.00
39739;BME280;25422;48.286;8.484;2022-11-04T14:51:27;93200.84;;;7.58;100.00
39739;BME280;25422;48.286;8.484;2022-11-04T14:54:01;93201.03;;;7.57;100.00
39739;BME280;25422;48.286;8.484;2022-11-04T14:56:28;93205.41;;;7.56;100.00
39739;BME280;25422;48.286;8.484;2022-11-04T15:01:21;93207.72;;;7.51;100.00
39739;BME280;25422;48.286;8.484;2022-11-04T15:03:47;93212.78;;;7.53;100.00
39739;BME280;25422;48.286;8.484;2022-11-04T15:06:22;93221.44;;;7.45;100.00
39739;BME280;25422;48.286;8.484;2022-11-04T15:08:49;93222.72;;;7.49;100.00
39739;BME280;25422;48.286;8.484;2022-11-04T15:11:20;93222.78;;;7.41;100.00
39739;BME280;25422;48.286;8.484;2022-11-04T15:14:19;93235.69;;;7.34;100.00
39739;BME280;25422;48.286;8.484;2022-11-04T15:16:48;93231.16;;;7.28;100.00